sensor_id;sensor_type;location;lat;lon;timestamp;pressure;altitude;pressure_sealevel;temperature;humidity
69574;BME280;62840;52.366;5.980;2023-11-19T00:00:09;100645.44;;;12.44;80.92
69574;BME280;62840;52.366;5.980;2023-11-19T00:02:36;100639.84;;;12.47;80.96
69574;BME280;62840;52.366;5.980;2023-11-19T00:05:02;100638.56;;;12.51;81.04
69574;BME280;62840;52.366;5.980;2023-11-19T00:07:28;100620.38;;;12.54;80.78
69574;BME280;62840;52.366;5.980;2023-11-19T00:09:53;100619.25;;;12.57;80.67
69574;BME280;62840;52.366;5.980;2023-11-19T00:12:22;100630.63;;;12.59;80.75
69574;BME280;62840;52.366;5.980;2023-11-19T00:14:48;100621.63;;;12.60;80.81
69574;BME280;62840;52.366;5.980;2023-11-19T00:17:13;100633.03;;;12.62;80.88
69574;BME280;62840;52.366;5.980;2023-11-19T00:19:39;100624.84;;;12.64;81.02
69574;BME280;62840;52.366;5.980;2023-11-19T00:22:05;100624.00;;;12.63;80.71
69574;BME280;62840;52.366;5.980;2023-11-19T00:24:31;100614.97;;;12.64;80.56
69574;BME280;62840;52.366;5.980;2023-11-19T00:26:56;100624.72;;;12.65;80.86
69574;BME280;62840;52.366;5.980;2023-11-19T00:29:25;100622.03;;;12.65;80.73
69574;BME280;62840;52.366;5.980;2023-11-19T00:31:50;100621.72;;;12.68;80.86
69574;BME280;62840;52.366;5.980;2023-11-19T00:34:16;100631.47;;;12.69;80.66
69574;BME280;62840;52.366;5.980;2023-11-19T00:36:42;100619.75;;;12.70;80.73
69574;BME280;62840;52.366;5.980;2023-11-19T00:39:08;100600.91;;;12.72;80.93
69574;BME280;62840;52.366;5.980;2023-11-19T00:41:33;100607.91;;;12.73;80.87
69574;BME280;62840;52.366;5.980;2023-11-19T00:43:59;100601.41;;;12.75;80.82
69574;BME280;62840;52.366;5.980;2023-11-19T00:46:27;100589.75;;;12.77;80.65
69574;BME280;62840;52.366;5.980;2023-11-19T00:48:53;100590.44;;;12.79;80.66
69574;BME280;62840;52.366;5.980;2023-11-19T00:51:19;100568.19;;;12.78;80.58
69574;BME280;62840;52.366;5.980;2023-11-19T00:53:45;100554.81;;;12.78;80.70
69574;BME280;62840;52.366;5.980;2023-11-19T00:56:10;100536.91;;;12.79;80.51
69574;BME280;62840;52.366;5.980;2023-11-19T00:58:36;100536.91;;;12.79;80.37
69574;BME280;62840;52.366;5.980;2023-11-19T01:01:02;100548.47;;;12.79;80.40
69574;BME280;62840;52.366;5.980;2023-11-19T01:03:31;100552.16;;;12.78;80.28
69574;BME280;62840;52.366;5.980;2023-11-19T01:05:57;100562.97;;;12.77;80.38
69574;BME280;62840;52.366;5.980;2023-11-19T01:08:22;100575.34;;;12.78;80.50
69574;BME280;62840;52.366;5.980;2023-11-19T01:10:48;100577.06;;;12.79;80.70
69574;BME280;62840;52.366;5.980;2023-11-19T01:13:14;100577.06;;;12.79;80.52
69574;BME280;62840;52.366;5.980;2023-11-19T01:15:40;100576.06;;;12.80;80.45
69574;BME280;62840;52.366;5.980;2023-11-19T01:18:05;100580.56;;;12.79;80.70
69574;BME280;62840;52.366;5.980;2023-11-19T01:20:34;100591.13;;;12.81;80.50
69574;BME280;62840;52.366;5.980;2023-11-19T01:23:00;100583.38;;;12.78;80.49
69574;BME280;62840;52.366;5.980;2023-11-19T01:25:25;100583.13;;;12.81;80.36
69574;BME280;62840;52.366;5.980;2023-11-19T01:27:51;100585.78;;;12.81;80.28
69574;BME280;62840;52.366;5.980;2023-11-19T01:30:17;100579.75;;;12.79;80.64
69574;BME280;62840;52.366;5.980;2023-11-19T01:32:43;100574.38;;;12.79;80.52
69574;BME280;62840;52.366;5.980;2023-11-19T01:35:08;100562.97;;;12.77;80.58
69574;BME280;62840;52.366;5.980;2023-11-19T01:37:37;100548.91;;;12.74;80.59
69574;BME280;62840;52.366;5.980;2023-11-19T01:40:03;100556.94;;;12.74;80.64
69574;BME280;62840;52.366;5.980;2023-11-19T01:42:29;100554.13;;;12.76;80.56
69574;BME280;62840;52.366;5.980;2023-11-19T01:45:01;100547.91;;;12.75;80.56
69574;BME280;62840;52.366;5.980;2023-11-19T01:47:28;100541.72;;;12.75;80.48
69574;BME280;62840;52.366;5.980;2023-11-19T01:49:56;100533.69;;;12.75;nan
69574;BME280;62840;52.366;5.980;2023-11-19T01:52:25;100546.22;;;12.74;80.19
69574;BME280;62840;52.366;5.980;2023-11-19T01:54:55;100547.06;;;12.75;80.21
69574;BME280;62840;52.366;5.980;2023-11-19T01:57:22;100545.41;;;12.74;80.36
69574;BME280;62840;52.366;5.980;2023-11-19T01:59:50;100543.56;;;12.74;80.46
69574;BME280;62840;52.366;5.980;2023-11-19T02:02:18;100545.41;;;12.74;80.01
69574;BME280;62840;52.366;5.980;2023-11-19T02:04:44;100527.63;;;12.73;80.19
69574;BME280;62840;52.366;5.980;2023-11-19T02:07:10;100533.00;;;12.73;80.36
69574;BME280;62840;52.366;5.980;2023-11-19T02:09:35;100541.19;;;12.71;80.38
69574;BME280;62840;52.366;5.980;2023-11-19T02:12:05;100548.22;;;12.72;80.20
69574;BME280;62840;52.366;5.980;2023-11-19T02:14:32;100557.25;;;12.71;80.10
69574;BME280;62840;52.366;5.980;2023-11-19T02:16:57;100564.56;;;12.69;80.15
69574;BME280;62840;52.366;5.980;2023-11-19T02:19:23;100546.81;;;12.68;79.98
69574;BME280;62840;52.366;5.980;2023-11-19T02:21:49;100549.66;;;12.67;80.22
69574;BME280;62840;52.366;5.980;2023-11-19T02:24:18;100534.56;;;12.66;80.20
69574;BME280;62840;52.366;5.980;2023-11-19T02:26:52;100538.09;;;12.66;80.33
69574;BME280;62840;52.366;5.980;2023-11-19T02:29:30;100547.13;;;12.65;80.08
69574;BME280;62840;52.366;5.980;2023-11-19T02:31:56;100543.44;;;12.66;80.20
69574;BME280;62840;52.366;5.980;2023-11-19T02:34:22;100554.00;;;12.68;80.43
69574;BME280;62840;52.366;5.980;2023-11-19T02:36:47;100558.34;;;12.69;80.26
69574;BME280;62840;52.366;5.980;2023-11-19T02:39:13;100568.22;;;12.68;80.27
69574;BME280;62840;52.366;5.980;2023-11-19T02:41:39;100566.53;;;12.67;80.43
69574;BME280;62840;52.366;5.980;2023-11-19T02:44:06;100562.88;;;12.68;80.34
69574;BME280;62840;52.366;5.980;2023-11-19T02:46:34;100567.53;;;12.66;80.41
69574;BME280;62840;52.366;5.980;2023-11-19T02:49:00;100564.84;;;12.66;80.30
69574;BME280;62840;52.366;5.980;2023-11-19T02:51:26;100572.19;;;12.64;80.11
69574;BME280;62840;52.366;5.980;2023-11-19T02:53:51;100558.13;;;12.62;80.15
69574;BME280;62840;52.366;5.980;2023-11-19T02:56:17;100554.75;;;12.60;79.93
69574;BME280;62840;52.366;5.980;2023-11-19T02:58:44;100547.69;;;12.59;80.00
69574;BME280;62840;52.366;5.980;2023-11-19T03:01:10;100548.53;;;12.60;79.81
69574;BME280;62840;52.366;5.980;2023-11-19T03:03:38;100545.03;;;12.59;80.08
69574;BME280;62840;52.366;5.980;2023-11-19T03:06:04;100537.31;;;12.56;80.02
69574;BME280;62840;52.366;5.980;2023-11-19T03:08:30;100548.97;;;12.55;80.09
69574;BME280;62840;52.366;5.980;2023-11-19T03:10:56;100540.13;;;12.54;80.21
69574;BME280;62840;52.366;5.980;2023-11-19T03:13:22;100547.16;;;12.56;79.96
69574;BME280;62840;52.366;5.980;2023-11-19T03:15:48;100558.72;;;12.56;80.07
69574;BME280;62840;52.366;5.980;2023-11-19T03:18:13;100551.66;;;12.55;80.00
69574;BME280;62840;52.366;5.980;2023-11-19T03:20:42;100564.06;;;12.56;79.92
69574;BME280;62840;52.366;5.980;2023-11-19T03:23:08;100571.09;;;12.57;80.02
69574;BME280;62840;52.366;5.980;2023-11-19T03:25:34;100562.34;;;12.55;79.99
69574;BME280;62840;52.366;5.980;2023-11-19T03:28:00;100556.31;;;12.53;79.75
69574;BME280;62840;52.366;5.980;2023-11-19T03:30:26;100557.31;;;12.52;79.74
69574;BME280;62840;52.366;5.980;2023-11-19T03:32:52;100556.47;;;12.51;80.00
69574;BME280;62840;52.366;5.980;2023-11-19T03:35:18;100551.13;;;12.51;79.78
69574;BME280;62840;52.366;5.980;2023-11-19T03:37:46;100559.84;;;12.53;79.84
69574;BME280;62840;52.366;5.980;2023-11-19T03:40:12;100553.63;;;12.53;79.71
69574;BME280;62840;52.366;5.980;2023-11-19T03:42:38;100544.94;;;12.51;79.44
69574;BME280;62840;52.366;5.980;2023-11-19T03:45:05;100545.91;;;12.50;79.53
69574;BME280;62840;52.366;5.980;2023-11-19T03:47:31;100543.25;;;12.50;79.63
69574;BME280;62840;52.366;5.980;2023-11-19T03:49:57;100542.25;;;12.51;79.52
69574;BME280;62840;52.366;5.980;2023-11-19T03:52:23;100541.56;;;12.49;79.44
69574;BME280;62840;52.366;5.980;2023-11-19T03:54:51;100536.50;;;12.46;79.46
69574;BME280;62840;52.366;5.980;2023-11-19T03:57:17;100535.78;;;12.44;79.41
69574;BME280;62840;52.366;5.980;2023-11-19T03:59:43;100531.44;;;12.43;79.34
69574;BME280;62840;52.366;5.980;2023-11-19T04:02:08;100533.72;;;12.38;79.37
69574;BME280;62840;52.366;5.980;2023-11-19T04:04:34;100530.34;;;12.36;79.43
69574;BME280;62840;52.366;5.980;2023-11-19T04:07:01;100537.69;;;12.33;79.24
69574;BME280;62840;52.366;5.980;2023-11-19T04:09:27;100537.94;;;12.30;79.05
69574;BME280;62840;52.366;5.980;2023-11-19T04:11:55;100534.97;;;12.24;79.13
69574;BME280;62840;52.366;5.980;2023-11-19T04:14:21;100535.41;;;12.19;79.53
69574;BME280;62840;52.366;5.980;2023-11-19T04:16:47;100530.38;;;12.16;79.13
69574;BME280;62840;52.366;5.980;2023-11-19T04:19:12;100531.50;;;12.13;79.21
69574;BME280;62840;52.366;5.980;2023-11-19T04:21:40;100528.97;;;12.12;79.30
69574;BME280;62840;52.366;5.980;2023-11-19T04:24:07;100529.28;;;12.09;79.34
69574;BME280;62840;52.366;5.980;2023-11-19T04:26:34;100545.56;;;12.06;79.26
69574;BME280;62840;52.366;5.980;2023-11-19T04:29:02;100547.56;;;12.04;79.35
69574;BME280;62840;52.366;5.980;2023-11-19T04:31:29;100554.91;;;12.02;79.44
69574;BME280;62840;52.366;5.980;2023-11-19T04:33:54;100569.22;;;12.01;79.22
69574;BME280;62840;52.366;5.980;2023-11-19T04:36:20;100571.38;;;11.97;79.16
69574;BME280;62840;52.366;5.980;2023-11-19T04:38:46;100569.53;;;11.98;79.34
69574;BME280;62840;52.366;5.980;2023-11-19T04:41:12;100569.53;;;11.98;79.43
69574;BME280;62840;52.366;5.980;2023-11-19T04:43:37;100565.84;;;11.99;79.31
69574;BME280;62840;52.366;5.980;2023-11-19T04:46:06;100569.53;;;11.98;79.32
69574;BME280;62840;52.366;5.980;2023-11-19T04:48:34;100567.81;;;11.97;79.27
69574;BME280;62840;52.366;5.980;2023-11-19T04:51:00;100561.38;;;11.99;79.23
69574;BME280;62840;52.366;5.980;2023-11-19T04:53:26;100557.84;;;11.99;79.30
69574;BME280;62840;52.366;5.980;2023-11-19T04:55:52;100555.16;;;11.99;78.95
69574;BME280;62840;52.366;5.980;2023-11-19T04:58:17;100550.81;;;11.98;79.02
69574;BME280;62840;52.366;5.980;2023-11-19T05:00:43;100555.16;;;11.99;79.01
69574;BME280;62840;52.366;5.980;2023-11-19T05:03:12;100545.16;;;12.01;79.19
69574;BME280;62840;52.366;5.980;2023-11-19T05:05:38;100547.84;;;12.01;79.12
69574;BME280;62840;52.366;5.980;2023-11-19T05:08:03;100559.25;;;12.03;79.08
69574;BME280;62840;52.366;5.980;2023-11-19T05:10:29;100561.91;;;12.03;79.19
69574;BME280;62840;52.366;5.980;2023-11-19T05:12:55;100554.03;;;12.01;79.00
69574;BME280;62840;52.366;5.980;2023-11-19T05:15:21;100540.81;;;12.00;78.99
69574;BME280;62840;52.366;5.980;2023-11-19T05:17:47;100551.53;;;12.00;78.90
69574;BME280;62840;52.366;5.980;2023-11-19T05:20:15;100552.50;;;11.99;78.91
69574;BME280;62840;52.366;5.980;2023-11-19T05:22:41;100553.75;;;11.95;78.78
69574;BME280;62840;52.366;5.980;2023-11-19T05:25:08;100552.91;;;11.94;78.87
69574;BME280;62840;52.366;5.980;2023-11-19T05:27:34;100554.06;;;11.91;78.94
69574;BME280;62840;52.366;5.980;2023-11-19T05:30:00;100564.75;;;11.91;78.85
69574;BME280;62840;52.366;5.980;2023-11-19T05:32:26;100565.88;;;11.89;78.90
69574;BME280;62840;52.366;5.980;2023-11-19T05:34:52;100567.00;;;11.86;78.99
69574;BME280;62840;52.366;5.980;2023-11-19T05:37:20;100567.28;;;11.83;78.79
69574;BME280;62840;52.366;5.980;2023-11-19T05:39:46;100557.44;;;11.84;78.68
69574;BME280;62840;52.366;5.980;2023-11-19T05:42:11;100566.44;;;11.83;78.80
69574;BME280;62840;52.366;5.980;2023-11-19T05:44:37;100560.25;;;11.82;78.71
69574;BME280;62840;52.366;5.980;2023-11-19T05:47:04;100559.41;;;11.82;78.75
69574;BME280;62840;52.366;5.980;2023-11-19T05:49:30;100562.22;;;11.80;78.58
69574;BME280;62840;52.366;5.980;2023-11-19T05:51:55;100568.56;;;11.79;78.68
69574;BME280;62840;52.366;5.980;2023-11-19T05:54:24;100571.50;;;11.76;78.57
69574;BME280;62840;52.366;5.980;2023-11-19T05:56:49;100579.50;;;11.76;78.71
69574;BME280;62840;52.366;5.980;2023-11-19T05:59:15;100582.88;;;11.78;78.67
69574;BME280;62840;52.366;5.980;2023-11-19T06:01:41;100581.06;;;11.79;78.74
69574;BME280;62840;52.366;5.980;2023-11-19T06:04:07;100587.25;;;11.79;78.56
69574;BME280;62840;52.366;5.980;2023-11-19T06:06:33;100576.56;;;11.79;78.59
69574;BME280;62840;52.366;5.980;2023-11-19T06:08:59;100581.94;;;11.79;78.75
69574;BME280;62840;52.366;5.980;2023-11-19T06:11:27;100581.94;;;11.79;78.93
69574;BME280;62840;52.366;5.980;2023-11-19T06:13:53;100586.97;;;11.82;78.69
69574;BME280;62840;52.366;5.980;2023-11-19T06:16:19;100583.59;;;11.80;78.38
69574;BME280;62840;52.366;5.980;2023-11-19T06:18:45;100576.56;;;11.79;78.45
69574;BME280;62840;52.366;5.980;2023-11-19T06:21:11;100575.44;;;11.82;78.60
69574;BME280;62840;52.366;5.980;2023-11-19T06:23:37;100579.97;;;11.81;78.41
69574;BME280;62840;52.366;5.980;2023-11-19T06:26:04;100584.31;;;11.82;78.35
69574;BME280;62840;52.366;5.980;2023-11-19T06:28:32;100578.97;;;11.82;78.23
69574;BME280;62840;52.366;5.980;2023-11-19T06:30:58;100570.94;;;11.82;78.14
69574;BME280;62840;52.366;5.980;2023-11-19T06:33:24;100579.09;;;11.81;78.22
69574;BME280;62840;52.366;5.980;2023-11-19T06:35:50;100577.53;;;11.78;78.08
69574;BME280;62840;52.366;5.980;2023-11-19T06:38:16;100585.72;;;11.77;78.27
69574;BME280;62840;52.366;5.980;2023-11-19T06:40:41;100581.47;;;11.74;77.97
69574;BME280;62840;52.366;5.980;2023-11-19T06:43:07;100572.09;;;11.70;78.18
69574;BME280;62840;52.366;5.980;2023-11-19T06:45:36;100577.69;;;11.67;78.05
69574;BME280;62840;52.366;5.980;2023-11-19T06:48:01;100571.50;;;11.66;78.23
69574;BME280;62840;52.366;5.980;2023-11-19T06:50:27;100572.63;;;11.64;78.20
69574;BME280;62840;52.366;5.980;2023-11-19T06:52:53;100577.16;;;11.63;78.30
69574;BME280;62840;52.366;5.980;2023-11-19T06:55:19;100587.84;;;11.63;78.10
69574;BME280;62840;52.366;5.980;2023-11-19T06:57:45;100583.31;;;11.64;78.15
69574;BME280;62840;52.366;5.980;2023-11-19T07:00:12;100576.28;;;11.63;78.21
69574;BME280;62840;52.366;5.980;2023-11-19T07:02:40;100581.63;;;11.63;77.84
69574;BME280;62840;52.366;5.980;2023-11-19T07:05:07;100580.25;;;11.59;77.68
69574;BME280;62840;52.366;5.980;2023-11-19T07:07:33;100590.06;;;11.58;78.07
69574;BME280;62840;52.366;5.980;2023-11-19T07:09:59;100594.56;;;11.58;77.98
69574;BME280;62840;52.366;5.980;2023-11-19T07:12:25;100587.81;;;11.54;78.04
69574;BME280;62840;52.366;5.980;2023-11-19T07:14:50;100593.31;;;11.52;77.89
69574;BME280;62840;52.366;5.980;2023-11-19T07:17:16;100590.75;;;11.50;78.01
69574;BME280;62840;52.366;5.980;2023-11-19T07:19:45;100597.34;;;11.46;78.13
69574;BME280;62840;52.366;5.980;2023-11-19T07:22:10;100592.31;;;11.43;77.92
69574;BME280;62840;52.366;5.980;2023-11-19T07:24:38;100594.28;;;11.41;78.10
69574;BME280;62840;52.366;5.980;2023-11-19T07:27:04;100602.53;;;11.38;78.33
69574;BME280;62840;52.366;5.980;2023-11-19T07:29:30;100607.75;;;11.40;78.09
69574;BME280;62840;52.366;5.980;2023-11-19T07:31:56;100618.44;;;11.40;78.30
69574;BME280;62840;52.366;5.980;2023-11-19T07:34:22;100619.25;;;11.40;78.08
69574;BME280;62840;52.366;5.980;2023-11-19T07:36:50;100612.25;;;11.39;78.18
69574;BME280;62840;52.366;5.980;2023-11-19T07:39:16;100620.38;;;11.38;78.05
69574;BME280;62840;52.366;5.980;2023-11-19T07:41:42;100628.97;;;11.41;78.10
69574;BME280;62840;52.366;5.980;2023-11-19T07:44:07;100630.53;;;11.44;78.21
69574;BME280;62840;52.366;5.980;2023-11-19T07:46:33;100638.41;;;11.45;78.11
69574;BME280;62840;52.366;5.980;2023-11-19T07:48:59;100629.41;;;11.46;78.15
69574;BME280;62840;52.366;5.980;2023-11-19T07:51:25;100638.13;;;11.48;78.12
69574;BME280;62840;52.366;5.980;2023-11-19T07:53:53;100625.47;;;11.50;78.05
69574;BME280;62840;52.366;5.980;2023-11-19T07:56:19;100638.41;;;11.55;78.12
69574;BME280;62840;52.366;5.980;2023-11-19T07:58:45;100643.63;;;11.57;77.90
69574;BME280;62840;52.366;5.980;2023-11-19T08:01:10;100631.94;;;11.58;77.85
69574;BME280;62840;52.366;5.980;2023-11-19T08:03:36;100644.34;;;11.59;77.98
69574;BME280;62840;52.366;5.980;2023-11-19T08:06:03;100639.84;;;11.59;77.82
69574;BME280;62840;52.366;5.980;2023-11-19T08:08:29;100638.13;;;11.58;77.61
69574;BME280;62840;52.366;5.980;2023-11-19T08:10:58;100641.38;;;11.62;77.65
69574;BME280;62840;52.366;5.980;2023-11-19T08:13:24;100634.06;;;11.64;77.71
69574;BME280;62840;52.366;5.980;2023-11-19T08:15:50;100633.66;;;11.68;77.58
69574;BME280;62840;52.366;5.980;2023-11-19T08:18:16;100639.53;;;11.72;77.63
69574;BME280;62840;52.366;5.980;2023-11-19T08:20:41;100641.25;;;11.73;77.59
69574;BME280;62840;52.366;5.980;2023-11-19T08:23:07;100647.56;;;11.72;77.60
69574;BME280;62840;52.366;5.980;2023-11-19T08:25:33;100647.56;;;11.72;77.38
69574;BME280;62840;52.366;5.980;2023-11-19T08:28:02;100636.31;;;11.78;77.42
69574;BME280;62840;52.366;5.980;2023-11-19T08:30:28;100635.06;;;11.82;77.61
69574;BME280;62840;52.366;5.980;2023-11-19T08:32:54;100631.41;;;11.83;77.69
69574;BME280;62840;52.366;5.980;2023-11-19T08:35:20;100628.06;;;11.81;77.31
69574;BME280;62840;52.366;5.980;2023-11-19T08:37:46;100635.91;;;11.83;77.46
69574;BME280;62840;52.366;5.980;2023-11-19T08:40:12;100631.25;;;11.85;77.19
69574;BME280;62840;52.366;5.980;2023-11-19T08:42:38;100631.25;;;11.85;76.96
69574;BME280;62840;52.366;5.980;2023-11-19T08:45:07;100630.31;;;11.86;77.06
69574;BME280;62840;52.366;5.980;2023-11-19T08:47:34;100623.13;;;11.86;77.08
69574;BME280;62840;52.366;5.980;2023-11-19T08:49:59;100623.00;;;11.88;77.07
69574;BME280;62840;52.366;5.980;2023-11-19T08:52:25;100622.81;;;11.89;76.98
69574;BME280;62840;52.366;5.980;2023-11-19T08:54:51;100636.19;;;11.89;77.18
69574;BME280;62840;52.366;5.980;2023-11-19T08:57:17;100630.13;;;11.87;77.00
69574;BME280;62840;52.366;5.980;2023-11-19T08:59:42;100626.75;;;11.85;76.88
69574;BME280;62840;52.366;5.980;2023-11-19T09:02:11;100617.91;;;11.85;76.76
69574;BME280;62840;52.366;5.980;2023-11-19T09:04:36;100625.94;;;11.85;77.27
69574;BME280;62840;52.366;5.980;2023-11-19T09:07:02;100627.47;;;11.87;77.23
69574;BME280;62840;52.366;5.980;2023-11-19T09:09:28;100628.16;;;11.89;77.04
69574;BME280;62840;52.366;5.980;2023-11-19T09:11:54;100630.72;;;11.91;76.96
69574;BME280;62840;52.366;5.980;2023-11-19T09:14:20;100636.19;;;11.89;76.99
69574;BME280;62840;52.366;5.980;2023-11-19T09:16:46;100629.59;;;11.94;77.09
69574;BME280;62840;52.366;5.980;2023-11-19T09:19:14;100626.91;;;11.94;76.95
69574;BME280;62840;52.366;5.980;2023-11-19T09:21:40;100639.00;;;11.98;76.99
69574;BME280;62840;52.366;5.980;2023-11-19T09:24:06;100638.72;;;12.01;76.66
69574;BME280;62840;52.366;5.980;2023-11-19T09:26:32;100631.09;;;12.06;76.85
69574;BME280;62840;52.366;5.980;2023-11-19T09:28:58;100637.88;;;12.10;76.81
69574;BME280;62840;52.366;5.980;2023-11-19T09:31:24;100635.91;;;12.12;76.88
69574;BME280;62840;52.366;5.980;2023-11-19T09:33:50;100640.97;;;12.15;76.93
69574;BME280;62840;52.366;5.980;2023-11-19T09:36:18;100634.50;;;12.18;76.87
69574;BME280;62840;52.366;5.980;2023-11-19T09:38:44;100628.03;;;12.20;76.56
69574;BME280;62840;52.366;5.980;2023-11-19T09:41:10;100638.72;;;12.20;76.28
69574;BME280;62840;52.366;5.980;2023-11-19T09:43:36;100635.91;;;12.22;76.67
69574;BME280;62840;52.366;5.980;2023-11-19T09:46:05;100638.41;;;12.23;76.49
69574;BME280;62840;52.366;5.980;2023-11-19T09:48:33;100636.44;;;12.25;76.71
69574;BME280;62840;52.366;5.980;2023-11-19T09:51:00;100634.22;;;12.30;77.15
69574;BME280;62840;52.366;5.980;2023-11-19T09:53:30;100640.00;;;12.36;76.80
69574;BME280;62840;52.366;5.980;2023-11-19T09:55:56;100639.56;;;12.40;76.43
69574;BME280;62840;52.366;5.980;2023-11-19T09:58:24;100641.09;;;12.43;76.36
69574;BME280;62840;52.366;5.980;2023-11-19T10:00:49;100639.97;;;12.45;76.16
69574;BME280;62840;52.366;5.980;2023-11-19T10:03:16;100641.50;;;12.48;75.92
69574;BME280;62840;52.366;5.980;2023-11-19T10:05:42;100649.41;;;12.49;76.23
69574;BME280;62840;52.366;5.980;2023-11-19T10:08:08;100647.56;;;12.50;75.88
69574;BME280;62840;52.366;5.980;2023-11-19T10:10:36;100646.28;;;12.54;75.85
69574;BME280;62840;52.366;5.980;2023-11-19T10:13:02;100646.16;;;12.56;75.92
69574;BME280;62840;52.366;5.980;2023-11-19T10:15:36;100648.38;;;12.60;75.86
69574;BME280;62840;52.366;5.980;2023-11-19T10:18:03;100638.41;;;12.62;75.76
69574;BME280;62840;52.366;5.980;2023-11-19T10:20:28;100629.06;;;12.66;75.93
69574;BME280;62840;52.366;5.980;2023-11-19T10:22:55;100620.06;;;12.67;75.71
69574;BME280;62840;52.366;5.980;2023-11-19T10:25:25;100627.09;;;12.68;75.61
69574;BME280;62840;52.366;5.980;2023-11-19T10:27:55;100627.09;;;12.68;75.65
69574;BME280;62840;52.366;5.980;2023-11-19T10:30:22;100634.13;;;12.69;75.70
69574;BME280;62840;52.366;5.980;2023-11-19T10:33:05;100631.28;;;12.71;75.68
69574;BME280;62840;52.366;5.980;2023-11-19T10:35:32;100622.44;;;12.70;75.50
69574;BME280;62840;52.366;5.980;2023-11-19T10:37:59;100624.84;;;12.73;75.43
69574;BME280;62840;52.366;5.980;2023-11-19T10:40:37;100622.81;;;12.75;75.54
69574;BME280;62840;52.366;5.980;2023-11-19T10:43:06;100628.19;;;12.75;75.35
69574;BME280;62840;52.366;5.980;2023-11-19T10:45:32;100624.53;;;12.77;75.77
69574;BME280;62840;52.366;5.980;2023-11-19T10:47:58;100626.22;;;12.78;75.73
69574;BME280;62840;52.366;5.980;2023-11-19T10:50:24;100622.56;;;12.79;75.95
69574;BME280;62840;52.366;5.980;2023-11-19T10:52:52;100621.72;;;12.78;75.45
69574;BME280;62840;52.366;5.980;2023-11-19T10:55:27;100632.56;;;12.77;75.63
69574;BME280;62840;52.366;5.980;2023-11-19T10:57:58;100632.44;;;12.78;75.68
69574;BME280;62840;52.366;5.980;2023-11-19T11:00:29;100629.59;;;12.80;75.54
69574;BME280;62840;52.366;5.980;2023-11-19T11:03:00;100626.75;;;12.81;75.44
69574;BME280;62840;52.366;5.980;2023-11-19T11:05:27;100630.16;;;12.83;75.17
69574;BME280;62840;52.366;5.980;2023-11-19T11:07:55;100623.97;;;12.83;75.49
69574;BME280;62840;52.366;5.980;2023-11-19T11:10:24;100629.31;;;12.83;75.24
69574;BME280;62840;52.366;5.980;2023-11-19T11:12:52;100629.31;;;12.83;75.01
69574;BME280;62840;52.366;5.980;2023-11-19T11:15:19;100617.72;;;12.82;74.98
69574;BME280;62840;52.366;5.980;2023-11-19T11:17:49;100613.25;;;12.83;75.22
69574;BME280;62840;52.366;5.980;2023-11-19T11:20:18;100600.56;;;12.85;75.40
69574;BME280;62840;52.366;5.980;2023-11-19T11:22:55;100603.91;;;12.87;74.80
69574;BME280;62840;52.366;5.980;2023-11-19T11:25:41;100604.91;;;12.86;75.24
69574;BME280;62840;52.366;5.980;2023-11-19T11:28:26;100604.78;;;12.87;75.50
69574;BME280;62840;52.366;5.980;2023-11-19T11:31:25;100612.81;;;12.87;75.47
69574;BME280;62840;52.366;5.980;2023-11-19T11:34:30;100614.63;;;12.87;74.94
69574;BME280;62840;52.366;5.980;2023-11-19T11:37:17;100609.25;;;12.87;74.97
69574;BME280;62840;52.366;5.980;2023-11-19T11:39:45;100619.53;;;12.91;75.17
69574;BME280;62840;52.366;5.980;2023-11-19T11:42:33;100608.41;;;12.96;75.19
69574;BME280;62840;52.366;5.980;2023-11-19T11:45:00;100603.06;;;12.96;74.75
69574;BME280;62840;52.366;5.980;2023-11-19T11:50:49;100603.19;;;12.94;74.56
69574;BME280;62840;52.366;5.980;2023-11-19T11:53:21;100601.34;;;12.95;74.51
69574;BME280;62840;52.366;5.980;2023-11-19T11:55:55;100603.06;;;12.96;74.22
69574;BME280;62840;52.366;5.980;2023-11-19T11:58:26;100596.00;;;12.95;74.41
69574;BME280;62840;52.366;5.980;2023-11-19T12:00:57;100596.00;;;12.95;74.52
69574;BME280;62840;52.366;5.980;2023-11-19T12:03:27;100593.31;;;12.95;74.77
69574;BME280;62840;52.366;5.980;2023-11-19T12:05:54;100594.00;;;12.97;74.68
69574;BME280;62840;52.366;5.980;2023-11-19T12:08:24;100593.69;;;13.00;73.91
69574;BME280;62840;52.366;5.980;2023-11-19T12:10:52;100599.06;;;13.00;74.36
69574;BME280;62840;52.366;5.980;2023-11-19T12:13:20;100595.69;;;12.98;73.85
69574;BME280;62840;52.366;5.980;2023-11-19T12:16:07;100595.69;;;12.98;74.06
69574;BME280;62840;52.366;5.980;2023-11-19T12:18:39;100603.06;;;12.96;73.88
69574;BME280;62840;52.366;5.980;2023-11-19T12:21:05;100584.31;;;12.96;73.52
69574;BME280;62840;52.366;5.980;2023-11-19T12:23:31;100601.91;;;12.99;73.73
69574;BME280;62840;52.366;5.980;2023-11-19T12:25:58;100591.59;;;13.04;73.98
69574;BME280;62840;52.366;5.980;2023-11-19T12:28:24;100587.75;;;13.06;74.02
69574;BME280;62840;52.366;5.980;2023-11-19T12:30:50;100588.31;;;13.10;73.79
69574;BME280;62840;52.366;5.980;2023-11-19T12:33:16;100590.81;;;13.11;73.66
69574;BME280;62840;52.366;5.980;2023-11-19T12:35:46;100586.16;;;13.13;73.36
69574;BME280;62840;52.366;5.980;2023-11-19T12:38:18;100588.84;;;13.13;73.39
69574;BME280;62840;52.366;5.980;2023-11-19T12:40:45;100579.84;;;13.14;73.43
69574;BME280;62840;52.366;5.980;2023-11-19T12:43:21;100581.50;;;13.15;73.39
69574;BME280;62840;52.366;5.980;2023-11-19T12:45:47;100588.56;;;13.16;73.69
69574;BME280;62840;52.366;5.980;2023-11-19T12:48:13;100590.22;;;13.18;73.76
69574;BME280;62840;52.366;5.980;2023-11-19T12:50:54;100587.56;;;13.18;73.48
69574;BME280;62840;52.366;5.980;2023-11-19T12:53:23;100586.03;;;13.15;73.05